Time;durP1;ratioP1;P1;durP2;ratioP2;P2;SDS_P1;SDS_P2;PMS_P1;PMS_P2;Temp;Humidity;BMP_temperature;BMP_pressure;BME280_temperature;BME280_humidity;BME280_pressure;Samples;Min_cycle;Max_cycle;Signal;HPM_P1;HPM_P2
2021/05/28 00:01:27;;;;;;;18.95;13.25;;;;;;;10.55;66.50;100744.28;1658294;84;27519;-74
2021/05/28 00:03:54;;;;;;;17.12;12.78;;;;;;;10.53;66.38;100746.31;1641945;84;25727;-76
2021/05/28 00:06:21;;;;;;;20.30;13.90;;;;;;;10.51;66.47;100748.34;1676289;84;25848;-74
2021/05/28 00:08:49;;;;;;;19.55;14.20;;;;;;;10.48;66.43;100746.02;1677949;84;26098;-74
2021/05/28 00:11:16;;;;;;;17.40;13.55;;;;;;;10.48;66.67;100746.02;1656123;84;26463;-75
2021/05/28 00:13:43;;;;;;;18.50;13.88;;;;;;;10.49;66.69;100745.02;1648695;84;27675;-75
2021/05/28 00:16:11;;;;;;;21.23;13.93;;;;;;;10.48;66.69;100745.17;1677983;84;26384;-75
2021/05/28 00:18:38;;;;;;;22.00;15.78;;;;;;;10.44;66.58;100749.23;1655650;84;25751;-75
2021/05/28 00:21:06;;;;;;;22.62;15.28;;;;;;;10.40;66.68;100740.75;1651179;84;25814;-75
2021/05/28 00:23:33;;;;;;;23.02;16.23;;;;;;;10.36;66.76;100738.61;1644115;84;25821;-75
2021/05/28 00:25:59;;;;;;;20.57;15.75;;;;;;;10.36;66.99;100738.11;1655989;84;27460;-75
2021/05/28 00:28:27;;;;;;;19.90;15.00;;;;;;;10.34;66.95;100742.82;1661164;84;25705;-74
2021/05/28 00:30:54;;;;;;;21.25;15.10;;;;;;;10.31;66.94;100749.05;1618662;84;25720;-75
2021/05/28 00:33:21;;;;;;;20.05;15.43;;;;;;;10.27;66.92;100742.37;1649100;86;26493;-75
2021/05/28 00:35:48;;;;;;;24.05;16.70;;;;;;;10.27;67.19;100742.37;1650555;84;25742;-75
2021/05/28 00:38:15;;;;;;;20.23;15.75;;;;;;;10.27;67.14;100746.39;1677472;84;27523;-74
2021/05/28 00:40:42;;;;;;;18.70;14.47;;;;;;;10.27;67.13;100746.39;1639397;84;25739;-75
2021/05/28 00:43:09;;;;;;;22.13;15.55;;;;;;;10.29;67.21;100752.39;1652942;84;25715;-74
2021/05/28 00:45:36;;;;;;;25.97;17.30;;;;;;;10.29;67.10;100751.05;1659490;84;26133;-75
2021/05/28 00:48:04;;;;;;;20.92;16.20;;;;;;;10.30;67.42;100750.05;1685353;84;25685;-74
2021/05/28 00:50:31;;;;;;;21.95;16.17;;;;;;;10.32;67.35;100747.53;1643370;84;27434;-74
2021/05/28 00:52:58;;;;;;;22.32;15.35;;;;;;;10.33;67.42;100751.05;1612520;84;25806;-75
2021/05/28 00:55:27;;;;;;;18.57;15.03;;;;;;;10.31;67.41;100748.52;1679843;83;25690;-75
2021/05/28 00:57:55;;;;;;;20.65;15.08;;;;;;;10.29;67.59;100753.23;1656581;84;26512;-74
2021/05/28 01:00:26;;;;;;;20.80;14.60;;;;;;;10.29;67.48;100754.56;1659413;84;25740;-75
2021/05/28 01:02:54;;;;;;;;;;;;;;;10.30;67.84;100752.73;1620028;84;27276;-75
2021/05/28 01:05:22;;;;;;;21.02;14.47;;;;;;;10.30;68.01;100756.75;1682026;84;25656;-75
2021/05/28 01:07:49;;;;;;;18.73;14.63;;;;;;;10.27;68.16;100749.06;1678216;84;25785;-75
2021/05/28 01:10:16;;;;;;;22.02;15.05;;;;;;;10.25;68.08;100749.25;1649510;84;26010;-75
2021/05/28 01:12:43;;;;;;;18.82;13.83;;;;;;;10.22;68.15;100756.83;1663272;84;25546;-75
2021/05/28 01:15:11;;;;;;;17.30;13.65;;;;;;;10.19;68.18;100751.81;1666446;84;28095;-74
2021/05/28 01:17:39;;;;;;;17.00;12.90;;;;;;;10.16;68.19;100755.69;1687686;84;25236;-76
2021/05/28 01:20:08;;;;;;;17.57;13.35;;;;;;;10.14;68.48;100760.92;1657542;83;25691;-75
2021/05/28 01:22:37;;;;;;;17.52;14.30;;;;;;;10.11;68.72;100758.09;1629490;84;25504;-75
2021/05/28 01:25:06;;;;;;;17.30;13.60;;;;;;;10.09;68.80;100759.55;1688166;84;25794;-75
2021/05/28 01:27:34;;;;;;;20.72;14.63;;;;;;;10.08;68.65;100762.41;1691745;84;27528;-73
2021/05/28 01:30:02;;;;;;;20.20;15.55;;;;;;;10.08;68.88;100762.41;1647542;84;26021;-75
2021/05/28 01:32:29;;;;;;;19.55;15.60;;;;;;;10.09;69.19;100764.91;1700610;83;26265;-74
2021/05/28 01:34:56;;;;;;;21.42;16.00;;;;;;;10.11;69.25;100764.78;1699893;83;25809;-74
2021/05/28 01:37:23;;;;;;;19.17;15.72;;;;;;;10.13;69.38;100761.91;1659121;84;25900;-74
2021/05/28 01:39:53;;;;;;;19.77;15.65;;;;;;;10.12;69.38;100763.75;1667167;84;28040;-75
2021/05/28 01:42:20;;;;;;;19.77;15.78;;;;;;;10.09;69.42;100766.77;1660810;84;25722;-74
2021/05/28 01:44:48;;;;;;;21.37;16.85;;;;;;;10.07;69.35;100764.78;1695527;84;26637;-75
2021/05/28 01:47:15;;;;;;;20.72;15.40;;;;;;;10.05;69.45;100760.92;1647708;84;25758;-75
2021/05/28 01:49:43;;;;;;;20.85;15.70;;;;;;;10.02;69.43;100761.30;1715902;82;26366;-75
2021/05/28 01:52:10;;;;;;;21.30;15.32;;;;;;;10.02;69.51;100755.11;1627265;84;26765;-74
2021/05/28 01:54:39;;;;;;;16.67;14.53;;;;;;;10.01;69.57;100758.28;1690239;84;25882;-76
2021/05/28 01:57:08;;;;;;;20.68;15.20;;;;;;;10.00;69.66;100760.65;1653739;84;25430;-75
2021/05/28 01:59:35;;;;;;;20.10;16.20;;;;;;;10.01;69.78;100768.98;1671790;84;26007;-75
2021/05/28 02:02:03;;;;;;;24.67;17.57;;;;;;;10.02;70.06;100771.17;1662879;84;26460;-74
2021/05/28 02:04:30;;;;;;;21.82;16.45;;;;;;;10.02;70.32;100772.50;1690313;84;27326;-75
2021/05/28 02:06:58;;;;;;;22.10;16.10;;;;;;;10.01;70.47;100781.53;1650489;84;25688;-74
2021/05/28 02:09:25;;;;;;;21.02;15.80;;;;;;;10.04;70.71;100782.52;1675850;84;25672;-75
2021/05/28 02:11:52;;;;;;;22.52;15.80;;;;;;;10.05;70.87;100786.88;1685830;82;25988;-75
2021/05/28 02:14:19;;;;;;;20.15;15.90;;;;;;;10.05;70.89;100793.04;1653858;84;26548;-74
2021/05/28 02:16:46;;;;;;;21.87;17.07;;;;;;;10.07;71.12;100793.69;1650151;85;27468;-75
2021/05/28 02:19:13;;;;;;;24.10;17.02;;;;;;;10.07;71.40;100804.93;1673554;83;25780;-74
2021/05/28 02:21:40;;;;;;;24.67;17.17;;;;;;;10.06;71.57;100798.73;1681426;83;25751;-75
2021/05/28 02:24:11;;;;;;;20.12;16.32;;;;;;;10.08;71.68;100799.39;1678063;84;26397;-75
2021/05/28 02:26:37;;;;;;;24.30;17.67;;;;;;;10.11;71.97;100802.25;1670780;84;25687;-75
2021/05/28 02:29:04;;;;;;;20.80;16.25;;;;;;;10.13;72.02;100795.38;1656243;84;27501;-75
2021/05/28 02:31:31;;;;;;;20.55;16.17;;;;;;;10.17;72.15;100795.34;1650637;84;25696;-75
2021/05/28 02:33:58;;;;;;;21.37;16.15;;;;;;;10.18;72.36;100797.83;1679633;84;25757;-75
2021/05/28 02:36:25;;;;;;;20.15;15.50;;;;;;;10.19;72.31;100797.33;1647763;83;25676;-75
2021/05/28 02:38:52;;;;;;;22.77;16.85;;;;;;;10.23;72.56;100799.47;1674478;83;25793;-75
2021/05/28 02:41:19;;;;;;;20.23;15.70;;;;;;;10.26;72.51;100794.27;1681338;83;27347;-75
2021/05/28 02:43:46;;;;;;;23.40;16.23;;;;;;;10.29;72.63;100800.58;1658324;84;26456;-74
2021/05/28 02:46:13;;;;;;;18.37;15.50;;;;;;;10.33;72.85;100796.56;1651734;84;25763;-74
2021/05/28 02:48:40;;;;;;;20.02;15.23;;;;;;;10.32;72.93;100794.38;1664074;84;26004;-74
2021/05/28 02:51:07;;;;;;;17.65;14.98;;;;;;;10.32;73.01;100789.03;1648984;84;25679;-75
2021/05/28 02:53:34;;;;;;;19.98;16.57;;;;;;;10.34;73.04;100796.87;1692306;84;28139;-75
2021/05/28 02:56:06;;;;;;;19.75;16.45;;;;;;;10.36;73.01;100797.52;1660351;83;25757;-74
2021/05/28 02:58:34;;;;;;;18.50;15.48;;;;;;;10.37;73.02;100795.19;1710840;82;25698;-75
2021/05/28 03:01:01;;;;;;;17.60;14.30;;;;;;;10.36;73.32;100795.68;1675568;82;26415;-75
2021/05/28 03:03:28;;;;;;;20.08;14.18;;;;;;;10.35;73.27;100799.89;1691812;82;25836;-75
2021/05/28 03:05:56;;;;;;;20.12;16.55;;;;;;;10.35;73.43;100799.36;1667941;82;27468;-74
2021/05/28 03:08:23;;;;;;;17.48;14.05;;;;;;;10.36;73.52;100797.02;1673883;82;25731;-74
2021/05/28 03:10:50;;;;;;;17.27;13.38;;;;;;;10.37;73.65;100798.67;1686412;81;25765;-75
2021/05/28 03:13:17;;;;;;;20.23;14.33;;;;;;;10.39;73.85;100795.83;1700156;82;25799;-76
2021/05/28 03:15:44;;;;;;;16.82;13.00;;;;;;;10.40;73.77;100792.97;1648931;82;26185;-75
2021/05/28 03:18:17;;;;;;;16.40;13.98;;;;;;;10.43;73.97;100793.95;1685844;82;27393;-75
2021/05/28 03:20:46;;;;;;;17.42;13.93;;;;;;;10.45;74.02;100791.09;1679155;82;25637;-76
2021/05/28 03:23:12;;;;;;;15.70;13.32;;;;;;;10.49;74.07;100793.73;1711478;82;26287;-75
2021/05/28 03:25:39;;;;;;;17.20;14.70;;;;;;;10.50;74.08;100794.88;1673265;84;25650;-75
2021/05/28 03:28:07;;;;;;;17.23;14.47;;;;;;;10.54;74.13;100794.83;1705662;81;25824;-74
2021/05/28 03:30:34;;;;;;;16.00;13.50;;;;;;;10.60;74.20;100794.13;1698783;83;27352;-75
2021/05/28 03:33:01;;;;;;;14.70;11.85;;;;;;;10.66;74.15;100795.23;1706937;81;26384;-74
2021/05/28 03:35:28;;;;;;;13.95;12.50;;;;;;;10.68;74.30;100800.74;1682696;81;25776;-75
2021/05/28 03:37:55;;;;;;;15.32;12.82;;;;;;;10.70;74.50;100798.71;1668371;84;25742;-74
2021/05/28 03:40:22;;;;;;;15.58;12.35;;;;;;;10.73;74.30;100801.54;1656056;84;25689;-76
2021/05/28 03:42:49;;;;;;;15.18;11.85;;;;;;;10.79;74.53;100807.00;1692301;84;27943;-75
2021/05/28 03:45:16;;;;;;;13.00;11.63;;;;;;;10.80;74.63;100810.48;1678946;82;25970;-74
2021/05/28 03:47:43;;;;;;;14.53;11.68;;;;;;;10.81;74.50;100814.34;1678019;83;25704;-75
2021/05/28 03:50:11;;;;;;;13.40;10.98;;;;;;;10.84;74.76;100809.13;1640561;83;25756;-74
2021/05/28 03:52:38;;;;;;;15.40;10.72;;;;;;;10.84;74.89;100813.16;1655188;84;25756;-75
2021/05/28 03:55:07;;;;;;;13.58;10.20;;;;;;;10.86;75.04;100812.46;1676552;83;27526;-75
2021/05/28 03:57:34;;;;;;;13.72;10.78;;;;;;;10.86;75.05;100814.61;1708487;83;25733;-75
2021/05/28 04:00:01;;;;;;;10.70;9.28;;;;;;;10.90;75.18;100810.23;1639753;84;25976;-74
2021/05/28 04:02:28;;;;;;;12.03;10.08;;;;;;;10.92;75.29;100811.72;1664296;83;26211;-74
2021/05/28 04:04:55;;;;;;;14.38;9.55;;;;;;;10.97;75.44;100801.80;1680249;83;25764;-75
2021/05/28 04:07:24;;;;;;;11.40;9.45;;;;;;;11.00;75.51;100802.25;1687775;83;27530;-75
2021/05/28 04:09:51;;;;;;;15.95;10.60;;;;;;;11.04;75.53;100800.86;1658297;84;25974;-75
2021/05/28 04:12:18;;;;;;;11.57;9.68;;;;;;;11.11;75.58;100807.66;1664853;84;25780;-75
2021/05/28 04:14:45;;;;;;;10.18;9.08;;;;;;;11.17;75.55;100802.88;1679047;82;25679;-74
2021/05/28 04:17:12;;;;;;;13.62;11.12;;;;;;;11.19;75.51;100804.37;1689522;83;25733;-74
2021/05/28 04:19:39;;;;;;;15.32;11.03;;;;;;;11.24;75.56;100804.66;1666127;84;27079;-75
2021/05/28 04:22:06;;;;;;;18.73;13.22;;;;;;;11.31;75.37;100802.06;1705222;82;25677;-75
2021/05/28 04:24:33;;;;;;;15.55;11.48;;;;;;;11.37;75.74;100804.83;1664723;83;25689;-74
2021/05/28 04:27:00;;;;;;;14.35;11.57;;;;;;;11.41;75.61;100807.96;1659746;85;26015;-74
2021/05/28 04:29:27;;;;;;;11.50;10.03;;;;;;;11.47;75.63;100805.87;1646218;83;25729;-74
2021/05/28 04:31:54;;;;;;;10.35;9.25;;;;;;;11.49;75.62;100805.17;1669534;83;27416;-74
2021/05/28 04:34:21;;;;;;;12.68;10.48;;;;;;;11.52;75.54;100806.98;1656638;84;25800;-75
2021/05/28 04:36:48;;;;;;;12.10;9.80;;;;;;;11.51;75.67;100806.65;1688779;83;25802;-75
2021/05/28 04:39:15;;;;;;;12.63;10.70;;;;;;;11.51;75.41;100810.67;1683137;83;26025;-74
2021/05/28 04:41:42;;;;;;;11.85;10.10;;;;;;;11.54;75.56;100807.63;1688209;83;26452;-75
2021/05/28 04:44:09;;;;;;;13.78;9.83;;;;;;;11.58;75.51;100802.70;1682780;82;27391;-75
2021/05/28 04:46:36;;;;;;;14.05;9.50;;;;;;;11.63;75.73;100803.80;1696771;81;25935;-76
2021/05/28 04:49:04;;;;;;;10.82;9.20;;;;;;;11.67;75.54;100807.48;1702022;81;25715;-76
2021/05/28 04:51:31;;;;;;;13.85;9.60;;;;;;;11.69;75.55;100812.99;1626312;82;26024;-75
2021/05/28 04:53:58;;;;;;;10.85;8.65;;;;;;;11.74;75.81;100807.87;1670203;84;26172;-74
2021/05/28 04:56:25;;;;;;;10.53;8.90;;;;;;;11.76;75.53;100807.16;1654763;81;28055;-75
2021/05/28 04:58:52;;;;;;;10.32;8.23;;;;;;;11.81;75.47;100806.09;1734238;81;25711;-75
2021/05/28 05:01:19;;;;;;;8.18;7.37;;;;;;;11.86;75.47;100812.25;1669037;81;25594;-75
2021/05/28 05:03:46;;;;;;;11.88;8.78;;;;;;;11.91;75.40;100813.86;1703744;81;25639;-75
2021/05/28 05:06:13;;;;;;;11.45;8.73;;;;;;;11.86;75.22;100813.09;1715475;82;25724;-75
2021/05/28 05:08:40;;;;;;;9.75;8.50;;;;;;;11.84;75.07;100815.63;1718932;81;27476;-73
2021/05/28 05:11:09;;;;;;;13.43;9.38;;;;;;;11.84;75.14;100816.97;1664524;82;26197;-74
2021/05/28 05:13:36;;;;;;;12.53;8.95;;;;;;;11.83;75.00;100818.81;1696314;82;25780;-75
2021/05/28 05:16:04;;;;;;;10.88;8.63;;;;;;;11.85;74.86;100823.98;1714703;83;26068;-75
2021/05/28 05:18:31;;;;;;;11.45;9.05;;;;;;;11.90;74.95;100832.31;1663821;84;25721;-75
2021/05/28 05:20:58;;;;;;;11.88;8.20;;;;;;;11.95;74.82;100833.93;1661554;81;27278;-75
2021/05/28 05:23:25;;;;;;;14.18;8.95;;;;;;;12.00;74.93;100826.95;1694692;82;25584;-76
2021/05/28 05:25:52;;;;;;;10.48;8.48;;;;;;;12.04;74.80;100833.61;1717641;82;25658;-74
2021/05/28 05:28:19;;;;;;;13.53;8.95;;;;;;;12.11;74.76;100834.52;1694774;84;25669;-75
2021/05/28 05:30:46;;;;;;;12.68;9.08;;;;;;;12.23;74.88;100837.00;1644881;83;25944;-74
2021/05/28 05:33:13;;;;;;;12.25;9.15;;;;;;;12.38;75.44;100833.74;1671699;84;27906;-75
2021/05/28 05:35:40;;;;;;;9.45;7.87;;;;;;;12.49;74.55;100831.58;1713439;82;25665;-76
2021/05/28 05:38:10;;;;;;;11.63;7.72;;;;;;;12.56;74.53;100826.57;1727191;82;25696;-75
2021/05/28 05:40:38;;;;;;;7.97;6.85;;;;;;;12.63;74.14;100831.50;1650251;83;26737;-74
2021/05/28 05:43:05;;;;;;;8.15;7.33;;;;;;;12.64;73.40;100830.45;1698085;83;25828;-74
2021/05/28 05:45:32;;;;;;;9.75;7.42;;;;;;;12.66;73.58;100832.97;1699436;83;27644;-75
2021/05/28 05:48:00;;;;;;;11.90;7.85;;;;;;;12.72;73.86;100826.81;1711942;83;25700;-74
2021/05/28 05:50:28;;;;;;;8.60;6.95;;;;;;;12.77;73.54;100833.75;1662199;83;26425;-73
2021/05/28 05:52:55;;;;;;;10.18;6.90;;;;;;;12.82;73.15;100829.47;1651885;83;26003;-75
2021/05/28 05:55:23;;;;;;;11.60;8.35;;;;;;;12.89;73.39;100833.05;1684747;83;25775;-75
2021/05/28 05:57:51;;;;;;;9.20;8.18;;;;;;;12.99;73.71;100827.31;1667379;83;27593;-75
2021/05/28 06:00:19;;;;;;;12.45;8.08;;;;;;;13.06;73.00;100827.72;1621063;83;25720;-76
2021/05/28 06:02:46;;;;;;;9.95;7.30;;;;;;;13.08;72.52;100831.55;1711714;82;25774;-75
2021/05/28 06:05:14;;;;;;;8.65;7.62;;;;;;;13.08;72.27;100831.55;1683325;83;25566;-75
2021/05/28 06:07:43;;;;;;;10.45;8.40;;;;;;;13.11;72.64;100829.28;1676518;83;25617;-75
2021/05/28 06:10:12;;;;;;;10.75;8.83;;;;;;;13.17;72.56;100830.37;1609088;84;27289;-74
2021/05/28 06:12:39;;;;;;;11.45;8.20;;;;;;;13.25;72.60;100828.86;1680643;83;26148;-74
2021/05/28 06:15:07;;;;;;;15.38;9.30;;;;;;;13.32;72.47;100823.52;1669491;84;25713;-74
2021/05/28 06:17:34;;;;;;;14.75;8.10;;;;;;;13.35;72.23;100830.66;1684022;84;25723;-74
2021/05/28 06:20:02;;;;;;;8.98;8.03;;;;;;;13.45;72.77;100831.66;1668771;83;26016;-75
2021/05/28 06:22:31;;;;;;;11.97;7.83;;;;;;;13.56;72.19;100831.06;1698697;83;27510;-74
2021/05/28 06:24:58;;;;;;;10.18;7.95;;;;;;;13.66;72.35;100832.38;1676501;84;25798;-75
2021/05/28 06:27:25;;;;;;;9.43;7.17;;;;;;;13.66;71.24;100830.20;1670878;83;25820;-75
2021/05/28 06:29:52;;;;;;;8.30;7.17;;;;;;;13.65;71.20;100831.22;1625570;84;26013;-75
2021/05/28 06:32:19;;;;;;;11.38;7.12;;;;;;;13.75;71.58;100835.19;1650228;84;25761;-75
2021/05/28 06:34:46;;;;;;;7.33;6.10;;;;;;;13.87;71.65;100833.59;1609383;84;27544;-76
2021/05/28 06:37:13;;;;;;;6.62;5.92;;;;;;;14.03;71.23;100830.22;1675219;85;26061;-75
2021/05/28 06:39:40;;;;;;;9.15;6.08;;;;;;;14.15;71.01;100829.42;1607730;84;25860;-75
2021/05/28 06:42:07;;;;;;;11.30;5.92;;;;;;;14.28;70.73;100833.48;1633565;83;25669;-75
2021/05/28 06:44:34;;;;;;;6.53;5.92;;;;;;;14.40;70.98;100825.12;1650233;83;25856;-75
2021/05/28 06:47:02;;;;;;;8.10;5.25;;;;;;;14.56;70.72;100823.91;1703085;82;27062;-75
2021/05/28 06:49:29;;;;;;;7.83;5.30;;;;;;;14.71;70.08;100824.53;1652407;83;25684;-76
2021/05/28 06:51:56;;;;;;;6.37;5.17;;;;;;;14.80;69.14;100825.95;1666152;85;25742;-76
2021/05/28 06:54:23;;;;;;;6.75;5.28;;;;;;;14.85;68.14;100823.98;1662572;84;26367;-76
2021/05/28 06:56:50;;;;;;;8.03;5.10;;;;;;;14.91;68.77;100822.63;1676879;84;25658;-76
2021/05/28 06:59:17;;;;;;;5.53;4.62;;;;;;;14.98;68.49;100824.80;1622736;84;27451;-75
2021/05/28 07:01:44;;;;;;;6.85;6.17;;;;;;;15.07;68.69;100830.81;1663420;84;26479;-76
2021/05/28 07:04:11;;;;;;;6.55;4.33;;;;;;;15.02;66.72;100829.25;1685862;84;25719;-75
2021/05/28 07:06:38;;;;;;;4.87;4.37;;;;;;;14.97;66.72;100833.92;1634602;84;25769;-76
2021/05/28 07:09:07;;;;;;;5.97;4.42;;;;;;;15.07;67.36;100838.39;1653642;83;25776;-76
2021/05/28 07:11:34;;;;;;;4.85;4.12;;;;;;;15.20;67.03;100832.97;1660855;84;27491;-77
2021/05/28 07:14:01;;;;;;;5.08;4.58;;;;;;;15.32;66.80;100829.92;1648021;83;26379;-76
2021/05/28 07:16:28;;;;;;;4.33;3.90;;;;;;;15.45;66.54;100830.44;1692139;82;25679;-75
2021/05/28 07:18:55;;;;;;;4.87;4.37;;;;;;;15.49;66.18;100830.31;1666996;82;25791;-75
2021/05/28 07:21:25;;;;;;;7.25;4.35;;;;;;;15.51;66.32;100832.78;1650941;84;25713;-74
2021/05/28 07:23:52;;;;;;;3.80;3.50;;;;;;;15.62;66.02;100828.08;1667388;83;27403;-75
2021/05/28 07:26:20;;;;;;;10.43;5.40;;;;;;;15.72;65.93;100827.09;1685334;84;25854;-76
2021/05/28 07:28:47;;;;;;;4.10;3.70;;;;;;;15.87;66.16;100835.23;1628714;84;25892;-75
2021/05/28 07:31:14;;;;;;;4.50;3.95;;;;;;;15.96;64.56;100829.89;1676912;84;25845;-76
2021/05/28 07:33:41;;;;;;;4.20;3.80;;;;;;;16.02;63.80;100834.95;1680525;83;26258;-75
2021/05/28 07:36:09;;;;;;;3.70;3.35;;;;;;;16.07;63.33;100838.67;1682683;83;27394;-75
2021/05/28 07:38:36;;;;;;;2.75;2.55;;;;;;;16.13;64.46;100841.02;1641944;84;26571;-75
2021/05/28 07:41:04;;;;;;;4.10;2.60;;;;;;;16.13;64.00;100843.72;1658906;83;25672;-75
2021/05/28 07:43:31;;;;;;;2.62;2.15;;;;;;;16.19;63.43;100844.20;1716326;81;25784;-75
2021/05/28 07:45:58;;;;;;;2.87;2.55;;;;;;;16.29;63.29;100850.50;1727874;81;25724;-76
2021/05/28 07:48:25;;;;;;;2.95;2.47;;;;;;;16.39;63.55;100850.84;1663457;83;27972;-76
2021/05/28 07:50:58;;;;;;;4.92;2.60;;;;;;;16.59;63.40;100854.27;1685265;83;25796;-75
2021/05/28 07:53:24;;;;;;;3.12;2.80;;;;;;;16.65;62.87;100852.03;1664410;84;26454;-75
2021/05/28 07:55:51;;;;;;;3.80;3.40;;;;;;;16.59;62.20;100859.17;1676102;84;25663;-74
2021/05/28 07:58:19;;;;;;;3.20;2.95;;;;;;;16.38;61.46;100846.49;1661327;84;25682;-75
2021/05/28 08:00:46;;;;;;;5.08;3.80;;;;;;;16.34;62.02;100856.09;1662332;84;27489;-74
2021/05/28 08:03:13;;;;;;;3.87;3.47;;;;;;;16.28;61.48;100852.36;1701759;82;25752;-77
2021/05/28 08:05:41;;;;;;;3.98;3.52;;;;;;;16.17;61.34;100857.11;1714334;82;25593;-75
2021/05/28 08:08:10;;;;;;;4.58;3.10;;;;;;;16.06;60.81;100860.48;1663657;83;25822;-74
2021/05/28 08:10:37;;;;;;;4.75;3.20;;;;;;;16.02;60.77;100857.91;1690724;83;26410;-74
2021/05/28 08:13:05;;;;;;;3.40;2.58;;;;;;;15.97;60.62;100857.20;1690382;84;27548;-74
2021/05/28 08:15:32;;;;;;;3.50;2.92;;;;;;;15.99;60.22;100855.66;1669625;84;25863;-73
2021/05/28 08:18:00;;;;;;;3.40;3.10;;;;;;;15.99;60.50;100857.85;1653970;84;26196;-73
2021/05/28 08:20:27;;;;;;;2.75;2.55;;;;;;;16.06;61.01;100849.16;1669101;84;25561;-74
2021/05/28 08:22:58;;;;;;;2.80;2.60;;;;;;;16.17;60.12;100850.34;1693000;83;25783;-74
2021/05/28 08:25:23;;;;;;;3.10;2.90;;;;;;;16.23;60.46;100852.72;1656884;84;27649;-74
2021/05/28 08:27:50;;;;;;;4.00;2.75;;;;;;;16.32;60.81;100855.45;1669509;84;25331;-74
2021/05/28 08:30:18;;;;;;;3.20;2.90;;;;;;;16.24;59.22;100853.84;1661880;83;25638;-74
2021/05/28 08:32:46;;;;;;;2.47;2.27;;;;;;;16.15;59.46;100853.28;1682386;84;25757;-74
2021/05/28 08:35:15;;;;;;;2.90;2.55;;;;;;;16.11;59.76;100854.76;1697884;82;25706;-74
2021/05/28 08:37:42;;;;;;;3.02;2.72;;;;;;;16.11;59.44;100855.27;1664211;83;28166;-74
2021/05/28 08:40:10;;;;;;;2.77;2.55;;;;;;;16.08;59.41;100851.13;1684020;83;25718;-74
2021/05/28 08:42:38;;;;;;;4.65;2.87;;;;;;;16.06;59.12;100856.44;1724596;82;25776;-75
2021/05/28 08:45:06;;;;;;;4.03;2.87;;;;;;;16.07;59.68;100850.84;1675188;82;25809;-74
2021/05/28 08:47:34;;;;;;;2.42;2.22;;;;;;;16.10;59.54;100853.09;1684433;83;26332;-74
2021/05/28 08:50:01;;;;;;;2.35;2.15;;;;;;;16.15;59.37;100847.88;1642126;83;27319;-74
2021/05/28 08:52:28;;;;;;;2.77;2.58;;;;;;;16.18;57.90;100855.56;1684801;83;25858;-74
2021/05/28 08:54:55;;;;;;;3.60;3.15;;;;;;;16.16;58.90;100849.55;1650542;83;25768;-74
2021/05/28 08:57:23;;;;;;;4.80;2.70;;;;;;;16.21;59.13;100852.41;1675408;84;25750;-74
2021/05/28 08:59:50;;;;;;;3.17;2.70;;;;;;;16.38;59.19;100856.77;1663081;84;25814;-75
2021/05/28 09:02:37;;;;;;;2.77;2.30;;;;;;;16.62;59.79;100846.54;1678657;83;27583;-74
2021/05/28 09:05:23;;;;;;;2.95;2.62;;;;;;;16.84;59.22;100846.47;1662592;84;25738;-74
2021/05/28 09:07:58;;;;;;;3.80;3.12;;;;;;;16.97;58.71;100846.87;1610818;87;25722;-74
2021/05/28 09:10:40;;;;;;;3.35;3.05;;;;;;;16.94;58.01;100843.24;1652408;84;25766;-74
2021/05/28 09:13:22;;;;;;;3.85;3.08;;;;;;;16.92;57.65;100846.70;1651480;86;25775;-74
2021/05/28 09:16:10;;;;;;;3.52;2.67;;;;;;;16.88;57.50;100843.62;1632661;86;27416;-74
2021/05/28 09:18:47;;;;;;;3.08;2.30;;;;;;;16.86;57.64;100843.53;1664013;85;25745;-74
2021/05/28 09:21:32;;;;;;;1.80;1.67;;;;;;;16.92;58.33;100843.48;1622486;85;25795;-73
2021/05/28 09:24:03;;;;;;;2.40;2.20;;;;;;;16.98;57.19;100837.17;1667593;85;25801;-75
2021/05/28 09:26:32;;;;;;;3.75;2.33;;;;;;;17.02;57.47;100837.57;1616601;85;25764;-73
2021/05/28 09:29:01;;;;;;;4.03;2.35;;;;;;;17.09;57.26;100842.89;1664689;85;27180;-74
2021/05/28 09:31:35;;;;;;;4.05;3.65;;;;;;;17.12;57.33;100840.59;1672953;84;26259;-74
2021/05/28 09:33:59;;;;;;;11.35;5.05;;;;;;;17.21;56.92;100839.25;1635843;85;25771;-74
2021/05/28 09:36:35;;;;;;;3.47;3.17;;;;;;;17.32;58.49;100843.09;1623772;85;25982;-73
2021/05/28 09:39:12;;;;;;;3.35;2.92;;;;;;;17.40;57.34;100842.27;1679331;83;25696;-73
2021/05/28 09:41:51;;;;;;;4.08;2.67;;;;;;;17.43;56.42;100839.62;1660416;84;28083;-74
2021/05/28 09:44:27;;;;;;;3.42;1.90;;;;;;;17.35;56.32;100841.27;1687379;83;26641;-74
2021/05/28 09:47:11;;;;;;;2.47;2.25;;;;;;;17.24;55.55;100839.30;1680178;82;26380;-74
2021/05/28 09:49:44;;;;;;;2.60;2.10;;;;;;;17.28;56.03;100844.05;1698509;81;26074;-74
2021/05/28 09:52:24;;;;;;;3.05;1.90;;;;;;;17.35;55.65;100837.21;1664343;82;26427;-74
2021/05/28 09:55:08;;;;;;;2.17;1.98;;;;;;;17.38;55.95;100846.25;1679653;84;28230;-73
2021/05/28 09:57:52;;;;;;;5.03;2.10;;;;;;;17.43;55.66;100837.74;1714822;82;25874;-74
2021/05/28 10:00:26;;;;;;;3.22;2.20;;;;;;;17.49;54.08;100835.48;1628045;84;25735;-74
2021/05/28 10:03:18;;;;;;;2.12;1.98;;;;;;;17.48;54.92;100842.48;1637035;84;25811;-74
2021/05/28 10:05:50;;;;;;;2.67;2.42;;;;;;;17.44;55.28;100831.80;1685508;83;25847;-73
2021/05/28 10:08:19;;;;;;;3.05;2.67;;;;;;;17.44;55.69;100834.00;1662430;84;28034;-74
2021/05/28 10:10:49;;;;;;;3.12;2.83;;;;;;;17.41;55.96;100838.50;1656871;84;25631;-74
2021/05/28 10:13:21;;;;;;;2.87;2.50;;;;;;;17.41;56.17;100832.25;1618635;85;25742;-74
2021/05/28 10:15:52;;;;;;;2.67;2.47;;;;;;;17.51;57.30;100829.34;1687868;83;26706;-73
2021/05/28 10:18:21;;;;;;;2.65;2.45;;;;;;;17.63;55.81;100830.26;1665714;82;26325;-74
2021/05/28 10:20:51;;;;;;;3.25;2.77;;;;;;;17.76;56.63;100823.84;1689280;82;27585;-74
2021/05/28 10:23:19;;;;;;;3.37;3.05;;;;;;;17.97;56.30;100827.94;1620865;84;25569;-75
2021/05/28 10:25:47;;;;;;;2.52;2.15;;;;;;;18.10;56.31;100822.33;1677237;84;25650;-74
2021/05/28 10:28:21;;;;;;;5.42;2.85;;;;;;;18.08;54.93;100834.77;1680874;83;27041;-73
2021/05/28 10:30:51;;;;;;;5.50;2.52;;;;;;;17.90;53.99;100835.35;1661464;84;25823;-74
2021/05/28 10:33:23;;;;;;;6.67;2.70;;;;;;;17.60;54.23;100840.18;1667693;84;27045;-74
2021/05/28 10:35:56;;;;;;;2.22;2.02;;;;;;;17.40;55.12;100844.15;1657171;84;25818;-74
2021/05/28 10:38:39;;;;;;;2.62;2.20;;;;;;;17.24;55.64;100846.08;1680762;82;26397;-74
2021/05/28 10:41:14;;;;;;;4.85;3.05;;;;;;;17.12;56.60;100842.45;1660322;84;26544;-74
2021/05/28 10:43:59;;;;;;;4.45;2.62;;;;;;;16.94;56.93;100840.54;1631128;85;25334;-74
2021/05/28 10:46:26;;;;;;;3.12;2.80;;;;;;;16.87;57.48;100842.50;1693153;84;26913;-74
2021/05/28 10:49:04;;;;;;;4.62;2.98;;;;;;;16.83;57.71;100840.74;1656259;84;25787;-74
2021/05/28 10:51:37;;;;;;;3.10;2.75;;;;;;;16.84;57.73;100837.00;1692898;84;25285;-74
2021/05/28 10:54:09;;;;;;;4.67;2.37;;;;;;;16.93;58.29;100826.72;1691144;84;25902;-74
2021/05/28 10:56:43;;;;;;;4.25;3.20;;;;;;;17.01;58.15;100830.48;1694031;84;26446;-74
2021/05/28 10:59:16;;;;;;;6.53;2.60;;;;;;;17.12;58.52;100830.28;1693126;84;27367;-74
2021/05/28 11:01:51;;;;;;;2.40;2.20;;;;;;;17.31;59.04;100831.43;1673212;84;25876;-74
2021/05/28 11:04:32;;;;;;;3.55;2.42;;;;;;;17.57;58.09;100827.11;1665248;84;25702;-74
2021/05/28 11:07:04;;;;;;;4.67;2.80;;;;;;;17.84;57.93;100819.98;1695063;84;27550;-74
2021/05/28 11:09:49;;;;;;;2.55;2.35;;;;;;;18.06;57.67;100815.20;1674498;84;25281;-73
2021/05/28 11:12:37;;;;;;;3.25;2.55;;;;;;;18.21;57.37;100810.70;1658589;84;27480;-74
2021/05/28 11:15:12;;;;;;;2.00;1.80;;;;;;;18.36;57.38;100805.68;1651133;84;25713;-74
2021/05/28 11:18:00;;;;;;;1.65;1.40;;;;;;;18.39;55.45;100816.08;1709090;83;25505;-74
2021/05/28 11:20:37;;;;;;;2.62;1.65;;;;;;;18.22;54.75;100814.53;1667308;84;25631;-74
2021/05/28 11:23:14;;;;;;;1.67;1.42;;;;;;;18.19;55.07;100814.18;1709788;82;26104;-74
2021/05/28 11:25:52;;;;;;;2.10;1.57;;;;;;;18.18;54.58;100811.16;1652310;84;27336;-74